Time;durP1;ratioP1;P1;durP2;ratioP2;P2;SDS_P1;SDS_P2;PMS_P1;PMS_P2;Temp;Humidity;BMP_temperature;BMP_pressure;BME280_temperature;BME280_humidity;BME280_pressure;Samples;Min_cycle;Max_cycle;Signal;HPM_P1;HPM_P2
2022/05/13 00:01:52;;;;;;;0.00;0.00;;;11.70;97.90;;;;;;5076240;28;20052;-77
2022/05/13 00:04:18;;;;;;;0.00;0.00;;;11.70;98.00;;;;;;5094121;28;20090;-77
2022/05/13 00:06:44;;;;;;;0.20;0.20;;;11.70;98.00;;;;;;5094251;28;20044;-77
2022/05/13 00:09:09;;;;;;;4.03;0.25;;;11.70;97.80;;;;;;5094113;28;20131;-77
2022/05/13 00:11:35;;;;;;;0.00;0.00;;;11.70;98.00;;;;;;5078045;28;20120;-77
2022/05/13 00:14:01;;;;;;;0.00;0.00;;;11.70;97.70;;;;;;5094311;28;20056;-76
2022/05/13 00:16:27;;;;;;;0.00;0.00;;;11.60;98.10;;;;;;5094047;28;20044;-77
2022/05/13 00:18:53;;;;;;;0.38;0.38;;;11.60;98.10;;;;;;5094004;28;20476;-77
2022/05/13 00:21:19;;;;;;;0.00;0.00;;;11.60;97.90;;;;;;5093830;28;20126;-77
2022/05/13 00:23:45;;;;;;;0.00;0.00;;;11.60;98.10;;;;;;5093746;28;20476;-77
2022/05/13 00:26:11;;;;;;;0.00;0.00;;;11.60;98.10;;;;;;5076929;28;20079;-77
2022/05/13 00:28:36;;;;;;;0.00;0.00;;;11.50;98.10;;;;;;5076340;28;20048;-77
2022/05/13 00:31:04;;;;;;;0.00;0.00;;;11.50;97.60;;;;;;5093669;28;20040;-77
2022/05/13 00:33:32;;;;;;;0.00;0.00;;;11.40;97.70;;;;;;5076736;28;20083;-77
2022/05/13 00:35:57;;;;;;;0.00;0.00;;;11.50;97.60;;;;;;5076546;28;20518;-77
2022/05/13 00:38:24;;;;;;;0.20;0.15;;;11.40;97.60;;;;;;5076585;28;20044;-77
2022/05/13 00:40:49;;;;;;;0.00;0.00;;;11.40;97.40;;;;;;5094175;28;20127;-77
2022/05/13 00:43:38;;;;;;;0.00;0.00;;;11.40;97.40;;;;;;5093376;28;20135;-77
2022/05/13 00:46:03;;;;;;;0.00;0.00;;;11.50;97.50;;;;;;5093797;28;20055;-77
2022/05/13 00:48:29;;;;;;;0.00;0.00;;;11.40;97.40;;;;;;5075894;28;20052;-77
2022/05/13 00:50:55;;;;;;;0.00;0.00;;;11.40;97.30;;;;;;5076373;28;20048;-77
2022/05/13 00:53:22;;;;;;;0.03;0.03;;;11.50;97.70;;;;;;5093077;28;20078;-76
2022/05/13 00:55:48;;;;;;;0.00;0.00;;;11.40;97.50;;;;;;5076546;28;20138;-77
2022/05/13 00:58:17;;;;;;;0.00;0.00;;;11.50;97.40;;;;;;5093357;28;20135;-76
2022/05/13 01:00:43;;;;;;;0.17;0.17;;;11.40;97.60;;;;;;5076351;28;20134;-77
2022/05/13 01:03:13;;;;;;;0.00;0.00;;;11.50;97.60;;;;;;5093165;28;20044;-77
2022/05/13 01:05:45;;;;;;;1.08;0.65;;;11.40;97.60;;;;;;5093820;28;20066;-77
2022/05/13 01:08:11;;;;;;;0.00;0.00;;;11.40;97.40;;;;;;5093587;28;20060;-77
2022/05/13 01:10:39;;;;;;;0.00;0.00;;;11.40;97.70;;;;;;5092996;28;20106;-76
2022/05/13 01:13:10;;;;;;;0.30;0.00;;;11.40;97.60;;;;;;5093109;28;20036;-77
2022/05/13 01:15:39;;;;;;;0.08;0.08;;;11.40;97.80;;;;;;5075747;28;20101;-77
2022/05/13 01:18:06;;;;;;;0.00;0.00;;;11.30;97.60;;;;;;5075641;28;20529;-77
2022/05/13 01:20:42;;;;;;;0.00;0.00;;;11.30;97.80;;;;;;5093714;28;20052;-77
2022/05/13 01:23:11;;;;;;;0.00;0.00;;;11.40;97.20;;;;;;5092923;28;20483;-77
2022/05/13 01:25:59;;;;;;;0.00;0.00;;;11.40;97.30;;;;;;5092634;28;20127;-77
2022/05/13 01:28:34;;;;;;;0.00;0.00;;;11.40;97.60;;;;;;5075486;28;20047;-77
2022/05/13 01:31:04;;;;;;;0.00;0.00;;;11.40;97.60;;;;;;5093289;28;20044;-77
2022/05/13 01:33:31;;;;;;;0.00;0.00;;;11.40;97.70;;;;;;5075991;28;20051;-77
2022/05/13 01:35:59;;;;;;;0.00;0.00;;;11.40;97.80;;;;;;5092984;28;20123;-77
2022/05/13 01:38:28;;;;;;;0.10;0.10;;;11.40;97.60;;;;;;5092842;28;20177;-77
2022/05/13 01:40:55;;;;;;;0.00;0.00;;;11.40;97.70;;;;;;5075758;28;20051;-77
2022/05/13 01:43:21;;;;;;;0.00;0.00;;;11.30;97.80;;;;;;5092948;28;20063;-77
2022/05/13 01:45:47;;;;;;;0.00;0.00;;;11.30;97.70;;;;;;5093207;28;20044;-77
2022/05/13 01:48:14;;;;;;;0.00;0.00;;;11.30;97.50;;;;;;5092628;28;20036;-77
2022/05/13 01:50:40;;;;;;;0.00;0.00;;;11.30;97.80;;;;;;5093113;28;20075;-77
2022/05/13 01:53:07;;;;;;;0.05;0.00;;;11.30;98.10;;;;;;5092876;28;20569;-77
2022/05/13 01:55:32;;;;;;;0.38;0.38;;;11.30;98.00;;;;;;5092554;28;20052;-77
2022/05/13 01:57:58;;;;;;;0.00;0.00;;;11.30;97.40;;;;;;5076142;28;20109;-77
2022/05/13 02:00:24;;;;;;;0.05;0.00;;;11.30;97.90;;;;;;5075734;28;20169;-77
2022/05/13 02:05:34;;;;;;;0.00;0.00;;;11.30;97.80;;;;;;5092516;28;20138;-77
2022/05/13 02:08:00;;;;;;;0.10;0.10;;;11.30;97.90;;;;;;5075369;28;20087;-77
2022/05/13 02:10:26;;;;;;;0.00;0.00;;;11.30;98.00;;;;;;5092278;28;20047;-77
2022/05/13 02:12:51;;;;;;;0.00;0.00;;;11.30;98.20;;;;;;5092415;28;20040;-77
2022/05/13 02:15:17;;;;;;;0.00;0.00;;;11.40;97.80;;;;;;5092230;28;20048;-77
2022/05/13 02:17:43;;;;;;;0.22;0.00;;;11.30;98.10;;;;;;5092424;28;20040;-77
2022/05/13 02:20:10;;;;;;;0.00;0.00;;;11.30;98.00;;;;;;5075535;28;20055;-77
2022/05/13 02:22:36;;;;;;;0.43;0.43;;;11.20;98.20;;;;;;5075472;28;20569;-77
2022/05/13 02:25:02;;;;;;;0.00;0.00;;;11.20;98.30;;;;;;5092364;28;20059;-77
2022/05/13 02:27:28;;;;;;;0.13;0.08;;;11.30;98.60;;;;;;5092839;28;20051;-77
2022/05/13 02:29:54;;;;;;;0.00;0.00;;;11.20;98.60;;;;;;5092505;28;20427;-77
2022/05/13 02:32:20;;;;;;;0.00;0.00;;;11.20;98.60;;;;;;5092271;28;20532;-77
2022/05/13 02:34:46;;;;;;;0.00;0.00;;;11.20;98.70;;;;;;5075369;28;20040;-77
2022/05/13 02:37:12;;;;;;;0.00;0.00;;;11.20;98.90;;;;;;5092166;28;20040;-77
2022/05/13 02:39:38;;;;;;;0.00;0.00;;;11.10;98.90;;;;;;5075976;28;20109;-77
2022/05/13 02:42:04;;;;;;;0.00;0.00;;;11.20;98.80;;;;;;5078664;28;20138;-77
2022/05/13 02:44:30;;;;;;;0.00;0.00;;;11.20;99.10;;;;;;5078836;28;20121;-77
2022/05/13 02:46:55;;;;;;;0.03;0.03;;;11.10;99.10;;;;;;5095825;28;20075;-77
2022/05/13 02:49:21;;;;;;;0.00;0.00;;;11.10;99.20;;;;;;5095149;28;20083;-77
2022/05/13 02:51:48;;;;;;;0.00;0.00;;;11.10;99.30;;;;;;5095600;28;20051;-77
2022/05/13 02:54:16;;;;;;;0.00;0.00;;;11.10;99.30;;;;;;5096156;28;20040;-77
2022/05/13 02:56:42;;;;;;;0.00;0.00;;;11.00;99.20;;;;;;5096184;28;20109;-77
2022/05/13 02:59:08;;;;;;;0.00;0.00;;;11.10;99.50;;;;;;5078482;28;20403;-77
2022/05/13 03:01:34;;;;;;;0.00;0.00;;;11.00;99.60;;;;;;5095566;28;20048;-77
2022/05/13 03:03:59;;;;;;;0.00;0.00;;;11.00;99.20;;;;;;5078448;28;20083;-77
2022/05/13 03:06:25;;;;;;;0.00;0.00;;;11.10;99.70;;;;;;5095905;28;20044;-77
2022/05/13 03:08:51;;;;;;;0.05;0.00;;;11.00;99.80;;;;;;5078287;28;20048;-77
2022/05/13 03:11:18;;;;;;;0.47;0.30;;;10.90;99.80;;;;;;5078455;28;20044;-77
2022/05/13 03:13:44;;;;;;;0.00;0.00;;;10.90;99.80;;;;;;5095067;28;20135;-77
2022/05/13 03:16:18;;;;;;;0.00;0.00;;;10.90;99.80;;;;;;5094685;28;20087;-77
2022/05/13 03:18:44;;;;;;;0.00;0.00;;;10.80;99.90;;;;;;5095006;28;20056;-77
2022/05/13 03:21:11;;;;;;;0.75;0.00;;;10.80;99.80;;;;;;5077919;28;20048;-77
2022/05/13 03:23:37;;;;;;;0.00;0.00;;;10.80;99.90;;;;;;5094913;28;20499;-77
2022/05/13 03:26:04;;;;;;;0.00;0.00;;;10.70;99.90;;;;;;5094971;28;20428;-77
2022/05/13 03:28:30;;;;;;;0.35;0.35;;;10.80;99.90;;;;;;5095071;28;20040;-77
2022/05/13 03:30:55;;;;;;;0.00;0.00;;;10.80;99.90;;;;;;5076954;28;20067;-78
2022/05/13 03:33:22;;;;;;;0.00;0.00;;;10.80;99.90;;;;;;5093908;28;20047;-77
2022/05/13 03:35:48;;;;;;;0.10;0.10;;;10.70;99.90;;;;;;5093571;28;20047;-77
2022/05/13 03:38:13;;;;;;;0.00;0.00;;;10.70;99.90;;;;;;5094361;28;20400;-77
2022/05/13 03:40:39;;;;;;;0.10;0.10;;;10.70;99.90;;;;;;5094801;28;20048;-77
2022/05/13 03:43:05;;;;;;;0.00;0.00;;;10.70;99.90;;;;;;5077790;28;20403;-77
2022/05/13 03:45:32;;;;;;;0.00;0.00;;;10.80;99.90;;;;;;5094853;28;20044;-77
2022/05/13 03:48:03;;;;;;;0.25;0.25;;;10.80;99.90;;;;;;5077150;28;20047;-77
2022/05/13 03:50:29;;;;;;;0.00;0.00;;;10.80;99.90;;;;;;5078003;28;20040;-77
2022/05/13 03:52:54;;;;;;;0.00;0.00;;;10.80;99.90;;;;;;5076774;28;20097;-77
2022/05/13 03:55:20;;;;;;;0.00;0.00;;;10.80;99.90;;;;;;5094379;28;20431;-78
2022/05/13 03:57:46;;;;;;;0.00;0.00;;;10.80;99.90;;;;;;5094259;28;20048;-77
2022/05/13 04:00:13;;;;;;;0.00;0.00;;;10.80;99.90;;;;;;5093768;28;20040;-77
2022/05/13 04:02:39;;;;;;;2.45;0.60;;;10.80;99.90;;;;;;5093971;28;20048;-76
2022/05/13 04:10:39;;;;;;;0.00;0.00;;;10.90;99.90;;;;;;5094397;28;20052;-77
2022/05/13 04:16:04;;;;;;;0.00;0.00;;;11.00;99.90;;;;;;5093619;28;20411;-77
2022/05/13 04:18:41;;;;;;;0.00;0.00;;;10.90;99.90;;;;;;5094131;28;20036;-77
2022/05/13 04:21:15;;;;;;;0.20;0.20;;;11.00;99.90;;;;;;5093926;28;20047;-77
2022/05/13 04:23:44;;;;;;;0.00;0.00;;;11.00;99.90;;;;;;5094093;28;20059;-77
2022/05/13 04:26:12;;;;;;;0.00;0.00;;;11.00;99.90;;;;;;5076854;28;20050;-77
2022/05/13 04:28:39;;;;;;;0.00;0.00;;;11.00;99.90;;;;;;5092828;28;20056;-77
2022/05/13 04:31:05;;;;;;;0.00;0.00;;;11.00;99.90;;;;;;5076733;28;20056;-77
2022/05/13 04:33:30;;;;;;;0.00;0.00;;;11.00;99.90;;;;;;5077078;28;20064;-77
2022/05/13 04:35:56;;;;;;;0.00;0.00;;;11.00;99.90;;;;;;5076638;28;20060;-78
2022/05/13 04:38:22;;;;;;;0.00;0.00;;;11.10;99.90;;;;;;5076991;28;20052;-78
2022/05/13 04:40:47;;;;;;;0.00;0.00;;;11.10;99.90;;;;;;5093008;28;20142;-77
2022/05/13 04:43:13;;;;;;;0.00;0.00;;;11.10;99.90;;;;;;5076459;28;20135;-78
2022/05/13 04:45:42;;;;;;;0.13;0.10;;;11.10;99.90;;;;;;5092801;28;20510;-78
2022/05/13 04:48:18;;;;;;;1.08;0.45;;;11.10;99.90;;;;;;5076223;28;20072;-77
2022/05/13 04:50:52;;;;;;;1.92;0.52;;;11.10;99.90;;;;;;5093127;28;20100;-77
2022/05/13 04:53:25;;;;;;;0.60;0.43;;;11.10;99.90;;;;;;5076366;28;20047;-80
2022/05/13 04:55:53;;;;;;;0.00;0.00;;;11.10;99.90;;;;;;5092744;28;20056;-79
2022/05/13 04:58:19;;;;;;;0.10;0.10;;;11.20;99.90;;;;;;5076678;28;20071;-79
2022/05/13 05:00:47;;;;;;;0.10;0.00;;;11.20;99.90;;;;;;5092679;28;20052;-79
2022/05/13 05:03:13;;;;;;;0.22;0.22;;;11.20;99.90;;;;;;5093509;28;20593;-79
2022/05/13 05:05:38;;;;;;;0.00;0.00;;;11.20;99.90;;;;;;5076189;28;20143;-79
2022/05/13 05:08:05;;;;;;;4.78;0.63;;;11.20;99.90;;;;;;5076446;28;20440;-79
2022/05/13 05:10:31;;;;;;;0.00;0.00;;;11.20;99.90;;;;;;5093018;28;20036;-78
2022/05/13 05:12:58;;;;;;;1.33;1.27;;;11.20;99.90;;;;;;5093106;28;20491;-79
2022/05/13 05:15:26;;;;;;;2.08;0.38;;;11.30;99.90;;;;;;5092199;28;20143;-78
2022/05/13 05:17:52;;;;;;;0.00;0.00;;;11.30;99.90;;;;;;5091555;28;20056;-78
2022/05/13 05:20:20;;;;;;;0.30;0.28;;;11.40;99.90;;;;;;5076186;28;20146;-79
2022/05/13 05:22:46;;;;;;;0.10;0.00;;;11.40;99.90;;;;;;5076385;28;20056;-79
2022/05/13 05:25:14;;;;;;;0.00;0.00;;;11.40;99.90;;;;;;5093308;28;20047;-79
2022/05/13 05:27:41;;;;;;;1.40;0.47;;;11.50;99.90;;;;;;5092956;28;20123;-79
2022/05/13 05:30:08;;;;;;;0.10;0.10;;;11.60;99.90;;;;;;5092520;28;20480;-79
2022/05/13 05:32:35;;;;;;;0.00;0.00;;;11.50;99.90;;;;;;5093170;28;20126;-78
2022/05/13 05:35:01;;;;;;;0.00;0.00;;;11.60;99.90;;;;;;5093361;28;20075;-79
2022/05/13 05:37:27;;;;;;;0.10;0.10;;;11.60;99.90;;;;;;5092850;28;20052;-78
2022/05/13 05:39:52;;;;;;;0.00;0.00;;;11.70;99.90;;;;;;5092740;28;20396;-78
2022/05/13 05:42:18;;;;;;;0.00;0.00;;;11.70;99.90;;;;;;5092949;28;20044;-78
2022/05/13 05:44:44;;;;;;;0.03;0.00;;;11.80;99.90;;;;;;5092091;28;20051;-79
2022/05/13 05:47:09;;;;;;;0.00;0.00;;;11.90;99.90;;;;;;5075834;28;20058;-79
2022/05/13 05:49:35;;;;;;;0.00;0.00;;;12.00;99.90;;;;;;5075583;28;20131;-79
2022/05/13 05:52:00;;;;;;;0.00;0.00;;;12.10;99.90;;;;;;5092709;28;20534;-79
2022/05/13 05:57:16;;;;;;;0.03;0.03;;;12.20;99.90;;;;;;5092586;28;20051;-79
2022/05/13 05:59:43;;;;;;;0.03;0.03;;;12.20;99.90;;;;;;5075892;28;20152;-79
2022/05/13 06:02:10;;;;;;;0.00;0.00;;;12.30;99.90;;;;;;5076345;28;20047;-79
2022/05/13 06:04:36;;;;;;;0.43;0.25;;;12.40;99.90;;;;;;5092506;28;20048;-79
2022/05/13 06:07:04;;;;;;;0.00;0.00;;;12.50;99.90;;;;;;5092481;28;20044;-79
2022/05/13 06:09:30;;;;;;;0.00;0.00;;;12.60;99.90;;;;;;5092193;28;20074;-78
2022/05/13 06:11:55;;;;;;;0.00;0.00;;;12.70;99.90;;;;;;5092668;28;20161;-79
2022/05/13 06:14:21;;;;;;;0.25;0.25;;;12.90;99.90;;;;;;5092402;28;20048;-79
2022/05/13 06:16:48;;;;;;;0.00;0.00;;;13.00;99.90;;;;;;5096243;28;20063;-79
2022/05/13 06:19:14;;;;;;;0.00;0.00;;;13.10;99.90;;;;;;5096318;28;20060;-79
2022/05/13 06:21:40;;;;;;;0.90;0.47;;;13.20;99.90;;;;;;5079177;28;20113;-79
2022/05/13 06:24:07;;;;;;;0.57;0.35;;;13.30;99.90;;;;;;5079014;28;20048;-79
2022/05/13 06:26:32;;;;;;;0.00;0.00;;;13.40;99.90;;;;;;5095823;28;20044;-79
2022/05/13 06:28:59;;;;;;;0.00;0.00;;;13.50;99.90;;;;;;5095968;28;20040;-79
2022/05/13 06:31:25;;;;;;;0.00;0.00;;;13.70;99.90;;;;;;5096099;28;20081;-79
2022/05/13 06:33:51;;;;;;;0.20;0.20;;;13.70;99.90;;;;;;5096077;28;20043;-79
2022/05/13 06:36:17;;;;;;;0.25;0.25;;;13.70;99.90;;;;;;5079018;28;20044;-79
2022/05/13 06:38:43;;;;;;;0.00;0.00;;;13.80;99.90;;;;;;5095772;28;20425;-79
2022/05/13 06:41:08;;;;;;;0.00;0.00;;;13.90;99.90;;;;;;5095848;28;20048;-79
2022/05/13 06:43:34;;;;;;;0.35;0.03;;;14.10;99.90;;;;;;5096395;28;20051;-79
2022/05/13 06:46:00;;;;;;;0.03;0.03;;;14.00;99.90;;;;;;5096100;28;20126;-79
2022/05/13 06:48:26;;;;;;;0.60;0.10;;;14.20;99.90;;;;;;5095823;28;20048;-79
2022/05/13 06:50:52;;;;;;;15.40;0.80;;;14.10;99.90;;;;;;5078701;28;20496;-79
2022/05/13 06:53:20;;;;;;;0.15;0.08;;;14.20;99.90;;;;;;5078316;28;20142;-78
2022/05/13 06:55:46;;;;;;;0.65;0.40;;;14.10;99.90;;;;;;5095517;28;20048;-79
2022/05/13 06:58:13;;;;;;;0.00;0.00;;;14.10;99.90;;;;;;5095527;28;20051;-79
2022/05/13 07:00:39;;;;;;;0.00;0.00;;;14.10;99.90;;;;;;5078495;28;20051;-78
2022/05/13 07:03:06;;;;;;;0.00;0.00;;;14.10;99.90;;;;;;5095431;28;20130;-78
2022/05/13 07:05:32;;;;;;;0.10;0.10;;;14.10;99.90;;;;;;5095305;28;20067;-79
2022/05/13 07:07:59;;;;;;;0.00;0.00;;;14.10;99.90;;;;;;5095330;28;20071;-78
2022/05/13 07:10:25;;;;;;;0.00;0.00;;;13.90;99.90;;;;;;5095032;28;20040;-79
2022/05/13 07:12:51;;;;;;;0.30;0.30;;;13.80;99.90;;;;;;5095021;28;20086;-79
2022/05/13 07:15:20;;;;;;;0.10;0.10;;;13.70;99.90;;;;;;5095031;28;20048;-79
2022/05/13 07:17:46;;;;;;;0.00;0.00;;;13.60;99.90;;;;;;5095335;28;20173;-78
2022/05/13 07:20:14;;;;;;;0.10;0.10;;;13.50;99.90;;;;;;5078147;28;20552;-79
2022/05/13 07:22:40;;;;;;;0.00;0.00;;;13.40;99.90;;;;;;5095037;28;20480;-79
2022/05/13 07:25:06;;;;;;;0.00;0.00;;;13.30;99.90;;;;;;5095215;28;20055;-79
2022/05/13 07:27:32;;;;;;;0.08;0.05;;;13.20;99.90;;;;;;5093514;28;20048;-79
2022/05/13 07:29:57;;;;;;;0.13;0.13;;;13.20;99.90;;;;;;5094736;28;20131;-79
2022/05/13 07:32:23;;;;;;;0.00;0.00;;;13.20;99.90;;;;;;5078149;28;20048;-78
2022/05/13 07:34:48;;;;;;;0.45;0.45;;;13.30;99.90;;;;;;5094888;28;20043;-79
2022/05/13 07:37:14;;;;;;;0.30;0.30;;;13.40;99.90;;;;;;5094884;28;20044;-79
2022/05/13 07:42:25;;;;;;;0.00;0.00;;;13.60;99.90;;;;;;5094862;28;20090;-78
2022/05/13 07:44:51;;;;;;;0.00;0.00;;;13.70;99.90;;;;;;5094485;28;20036;-78
2022/05/13 07:47:19;;;;;;;0.32;0.17;;;13.70;99.90;;;;;;5077603;28;20095;-79
2022/05/13 07:49:45;;;;;;;0.52;0.38;;;14.10;99.90;;;;;;5077364;28;20744;-79
2022/05/13 07:52:11;;;;;;;0.00;0.00;;;14.50;99.90;;;;;;5095490;28;20429;-79
2022/05/13 07:54:37;;;;;;;1.88;0.70;;;14.90;99.90;;;;;;5094969;28;20044;-79
2022/05/13 07:57:04;;;;;;;0.00;0.00;;;15.20;99.90;;;;;;5094458;28;20047;-79
2022/05/13 08:00:24;;;;;;;0.00;0.00;;;15.40;99.90;;;;;;5094323;28;20052;-79
2022/05/13 08:02:19;;;;;;;1.17;0.40;;;15.50;99.60;;;;;;5094534;28;20452;-79
2022/05/13 08:04:44;;;;;;;0.00;0.00;;;15.40;99.30;;;;;;5094391;28;20040;-79
2022/05/13 08:07:10;;;;;;;0.00;0.00;;;15.50;98.90;;;;;;5094365;28;20036;-79
2022/05/13 08:09:36;;;;;;;1.27;0.20;;;15.60;98.60;;;;;;5094181;28;20495;-80
2022/05/13 08:12:01;;;;;;;0.00;0.00;;;15.60;97.70;;;;;;5094439;28;20048;-79
2022/05/13 08:14:27;;;;;;;0.00;0.00;;;15.60;97.60;;;;;;5076998;28;20052;-79
2022/05/13 08:16:53;;;;;;;0.00;0.00;;;15.50;97.30;;;;;;5093883;28;20044;-79
2022/05/13 08:19:18;;;;;;;0.00;0.00;;;15.50;97.60;;;;;;5093968;28;20048;-79
2022/05/13 08:21:44;;;;;;;0.00;0.00;;;15.60;97.60;;;;;;5076748;28;20060;-79
2022/05/13 08:24:10;;;;;;;0.00;0.00;;;15.70;97.10;;;;;;5094023;28;20138;-79
2022/05/13 08:26:35;;;;;;;0.00;0.00;;;15.80;96.70;;;;;;5094122;28;20050;-79
2022/05/13 08:29:01;;;;;;;0.00;0.00;;;15.80;96.60;;;;;;5093707;28;20129;-79
2022/05/13 08:31:27;;;;;;;0.00;0.00;;;15.70;96.50;;;;;;5094526;28;20040;-79
2022/05/13 08:33:52;;;;;;;1.23;0.40;;;15.70;95.60;;;;;;5093663;28;20395;-79
2022/05/13 08:36:18;;;;;;;0.70;0.55;;;15.60;95.90;;;;;;5093719;28;20040;-79
2022/05/13 08:38:45;;;;;;;0.10;0.10;;;15.60;96.10;;;;;;5093255;28;20044;-79
2022/05/13 08:41:19;;;;;;;0.75;0.00;;;15.60;96.20;;;;;;5093356;28;20057;-79
2022/05/13 08:43:51;;;;;;;0.10;0.10;;;15.70;96.30;;;;;;5093525;28;20097;-79
2022/05/13 08:46:16;;;;;;;0.73;0.43;;;15.70;96.10;;;;;;5094099;28;20063;-79
2022/05/13 08:49:00;;;;;;;0.13;0.08;;;15.70;95.90;;;;;;5093787;28;20554;-79
2022/05/13 08:51:53;;;;;;;0.00;0.00;;;15.60;96.20;;;;;;5093623;28;20515;-79
2022/05/13 08:54:22;;;;;;;0.08;0.05;;;15.50;96.20;;;;;;5076802;28;20048;-79
2022/05/13 08:56:50;;;;;;;0.00;0.00;;;15.60;96.20;;;;;;5093796;28;20055;-79
2022/05/13 08:59:39;;;;;;;0.10;0.10;;;15.80;96.90;;;;;;5093250;28;20480;-79
2022/05/13 09:02:15;;;;;;;0.00;0.00;;;16.20;96.10;;;;;;5075454;28;20225;-79
2022/05/13 09:04:54;;;;;;;0.00;0.00;;;16.60;95.60;;;;;;5093273;28;20056;-79
2022/05/13 09:07:20;;;;;;;0.00;0.00;;;16.70;95.20;;;;;;5093732;28;20135;-80
2022/05/13 09:09:52;;;;;;;0.10;0.03;;;16.70;94.50;;;;;;5092663;28;20039;-80
2022/05/13 09:12:39;;;;;;;0.00;0.00;;;16.60;94.40;;;;;;5093094;28;20097;-80
2022/05/13 09:15:19;;;;;;;0.00;0.00;;;16.50;94.00;;;;;;5092914;28;20143;-80
2022/05/13 09:18:06;;;;;;;0.00;0.00;;;16.30;94.30;;;;;;5093654;28;20051;-80
2022/05/13 09:20:41;;;;;;;0.00;0.00;;;16.20;94.20;;;;;;5093147;28;20513;-79
2022/05/13 09:23:11;;;;;;;0.00;0.00;;;16.20;94.60;;;;;;5093171;28;20040;-79
2022/05/13 09:26:04;;;;;;;3.33;0.40;;;16.30;94.50;;;;;;5093192;28;20043;-80
2022/05/13 09:28:33;;;;;;;0.10;0.10;;;16.40;93.90;;;;;;5076184;28;20054;-80
2022/05/13 09:31:15;;;;;;;0.00;0.00;;;16.50;93.80;;;;;;5076401;28;20385;-79
2022/05/13 09:33:46;;;;;;;0.00;0.00;;;16.70;94.20;;;;;;5092593;28;20518;-79
2022/05/13 09:36:21;;;;;;;0.00;0.00;;;16.80;93.30;;;;;;5093132;28;20036;-79
2022/05/13 09:38:50;;;;;;;;;;;16.80;92.80;;;;;;5093746;28;20139;-79
2022/05/13 09:41:26;;;;;;;0.00;0.00;;;16.90;92.60;;;;;;5092884;28;19925;-79
2022/05/13 09:44:03;;;;;;;0.00;0.00;;;17.00;91.90;;;;;;5093160;28;20392;-79
2022/05/13 09:46:38;;;;;;;0.00;0.00;;;17.00;91.60;;;;;;5076724;28;20048;-79
2022/05/13 09:49:33;;;;;;;0.00;0.00;;;17.00;91.40;;;;;;5092525;28;20050;-79
2022/05/13 09:52:14;;;;;;;0.00;0.00;;;17.00;91.00;;;;;;5097123;28;20086;-80
2022/05/13 09:54:48;;;;;;;0.00;0.00;;;17.00;91.70;;;;;;5096751;28;20546;-79
2022/05/13 09:57:33;;;;;;;0.30;0.20;;;16.80;91.70;;;;;;5096962;28;20047;-80
2022/05/13 10:00:07;;;;;;;0.03;0.03;;;16.70;92.00;;;;;;5096768;28;20059;-79
2022/05/13 10:02:40;;;;;;;0.00;0.00;;;16.60;92.20;;;;;;5096838;28;20491;-79
2022/05/13 10:05:23;;;;;;;0.00;0.00;;;16.50;92.60;;;;;;5096634;28;20094;-79
2022/05/13 10:07:49;;;;;;;0.00;0.00;;;16.50;92.50;;;;;;5080401;28;20063;-79
2022/05/13 10:16:18;;;;;;;0.00;0.00;;;17.10;92.30;;;;;;5096129;28;20095;-79
2022/05/13 10:19:10;;;;;;;0.00;0.00;;;17.70;91.50;;;;;;5096525;28;20513;-79
2022/05/13 10:21:45;;;;;;;0.32;0.10;;;18.00;90.80;;;;;;5096340;28;20139;-79
2022/05/13 10:24:31;;;;;;;0.00;0.00;;;18.20;90.10;;;;;;5096093;28;20062;-79
2022/05/13 10:27:00;;;;;;;0.10;0.03;;;18.20;90.10;;;;;;5096658;28;20361;-79
2022/05/13 10:29:45;;;;;;;0.10;0.10;;;18.30;89.50;;;;;;5096288;28;20391;-79
2022/05/13 10:32:40;;;;;;;0.30;0.05;;;18.50;89.40;;;;;;5096075;28;20044;-79
2022/05/13 10:35:09;;;;;;;0.00;0.00;;;18.60;89.30;;;;;;5079539;28;20047;-79
2022/05/13 10:37:44;;;;;;;0.00;0.00;;;18.80;88.60;;;;;;5095955;28;20499;-80
2022/05/13 10:40:18;;;;;;;0.00;0.00;;;18.60;87.60;;;;;;5095784;28;20047;-80
2022/05/13 10:42:56;;;;;;;0.35;0.20;;;18.90;88.80;;;;;;5096372;28;20051;-79
2022/05/13 10:45:27;;;;;;;0.00;0.00;;;19.00;87.60;;;;;;5096131;28;20096;-79
2022/05/13 10:48:02;;;;;;;1.35;0.43;;;19.00;87.50;;;;;;5095937;28;20047;-79
2022/05/13 10:50:54;;;;;;;0.00;0.00;;;18.90;87.60;;;;;;5095541;28;20051;-79
2022/05/13 10:53:35;;;;;;;0.00;0.00;;;18.70;87.00;;;;;;5061075;28;20052;-79
2022/05/13 10:56:21;;;;;;;0.08;0.08;;;18.60;87.80;;;;;;5077632;28;20059;-79
2022/05/13 10:58:53;;;;;;;0.00;0.00;;;18.50;88.60;;;;;;5077934;28;20059;-79
2022/05/13 11:01:21;;;;;;;0.10;0.10;;;18.30;87.00;;;;;;5060760;28;20048;-79
2022/05/13 11:03:57;;;;;;;0.00;0.00;;;18.50;90.00;;;;;;5060531;28;20048;-79
2022/05/13 11:06:53;;;;;;;0.28;0.28;;;18.80;85.50;;;;;;5060438;28;20067;-79
2022/05/13 11:09:54;;;;;;;5.38;0.38;;;19.10;84.60;;;;;;5077502;28;20142;-79
2022/05/13 11:12:42;;;;;;;4.00;0.65;;;19.40;84.90;;;;;;5060815;28;20052;-79
2022/05/13 11:15:35;;;;;;;0.20;0.10;;;19.30;84.10;;;;;;5014087;28;20061;-79
2022/05/13 11:18:32;;;;;;;0.20;0.20;;;19.30;86.50;;;;;;4997932;28;20573;-79
2022/05/13 11:21:22;;;;;;;0.00;0.00;;;19.50;84.00;;;;;;5014977;28;20064;-79
2022/05/13 11:27:22;;;;;;;0.40;0.20;;;19.80;83.50;;;;;;4997959;28;20095;-78
2022/05/13 11:30:07;;;;;;;0.10;0.00;;;19.90;82.00;;;;;;5017453;28;20059;-78
2022/05/13 11:32:41;;;;;;;0.00;0.00;;;19.90;83.10;;;;;;5017365;28;20053;-79
2022/05/13 11:35:38;;;;;;;0.03;0.00;;;20.20;83.20;;;;;;5001217;28;20057;-78
2022/05/13 11:38:17;;;;;;;0.00;0.00;;;20.00;79.90;;;;;;5017446;28;20145;-79
2022/05/13 11:41:14;;;;;;;1.15;0.52;;;19.60;78.70;;;;;;5017302;28;20413;-78
2022/05/13 11:43:59;;;;;;;0.45;0.40;;;19.30;80.00;;;;;;4999577;28;20065;-78
2022/05/13 11:46:39;;;;;;;0.15;0.00;;;19.10;81.30;;;;;;5033607;28;20100;-79
2022/05/13 11:49:21;;;;;;;0.00;0.00;;;19.00;82.00;;;;;;5017000;28;20042;-79
2022/05/13 11:51:46;;;;;;;0.00;0.00;;;19.00;81.20;;;;;;5055426;28;20056;-79
2022/05/13 11:54:19;;;;;;;0.10;0.03;;;18.80;81.30;;;;;;5094748;28;20047;-78
2022/05/13 11:56:46;;;;;;;0.00;0.00;;;18.60;82.30;;;;;;5094955;28;20497;-79
2022/05/13 12:00:07;;;;;;;0.93;0.38;;;18.60;83.40;;;;;;5077599;28;20040;-79
2022/05/13 12:02:53;;;;;;;1.50;0.08;;;18.70;83.30;;;;;;5056466;28;20250;-78
2022/05/13 12:05:19;;;;;;;0.00;0.00;;;18.50;82.20;;;;;;5059044;28;20056;-78
2022/05/13 12:07:50;;;;;;;0.00;0.00;;;18.40;81.80;;;;;;5076402;28;20044;-79
2022/05/13 12:10:17;;;;;;;0.00;0.00;;;18.40;82.50;;;;;;5075937;28;20051;-78
2022/05/13 12:12:51;;;;;;;0.17;0.17;;;18.40;82.30;;;;;;5058928;28;20514;-79
2022/05/13 12:15:41;;;;;;;0.30;0.30;;;18.70;83.80;;;;;;5059212;28;20052;-79
2022/05/13 12:18:18;;;;;;;0.55;0.28;;;19.00;80.20;;;;;;5059597;28;20098;-79
2022/05/13 12:20:53;;;;;;;0.05;0.05;;;19.20;80.90;;;;;;5076212;28;20369;-79
2022/05/13 12:23:22;;;;;;;0.00;0.00;;;19.20;79.90;;;;;;5076556;28;20104;-79
2022/05/13 12:25:52;;;;;;;0.00;0.00;;;19.30;80.20;;;;;;5076060;28;20087;-79
2022/05/13 12:28:18;;;;;;;0.00;0.00;;;19.40;79.40;;;;;;5076232;28;20142;-79
2022/05/13 12:30:49;;;;;;;0.00;0.00;;;19.40;78.60;;;;;;5075826;28;20131;-79
2022/05/13 12:33:20;;;;;;;0.17;0.17;;;19.30;79.80;;;;;;5075952;28;20106;-79
2022/05/13 12:39:03;;;;;;;0.00;0.00;;;19.00;78.30;;;;;;5084170;28;20044;-79
2022/05/13 12:41:41;;;;;;;0.00;0.00;;;18.80;78.10;;;;;;5093354;28;20403;-79
2022/05/13 12:44:15;;;;;;;0.00;0.00;;;18.70;78.10;;;;;;5094193;28;20487;-79
2022/05/13 12:46:46;;;;;;;2.63;0.52;;;18.70;79.40;;;;;;5093901;28;20044;-79
2022/05/13 12:49:19;;;;;;;0.08;0.00;;;18.70;79.10;;;;;;5093225;28;20048;-79
2022/05/13 12:52:04;;;;;;;10.02;0.98;;;18.70;78.80;;;;;;5093310;28;20100;-79
2022/05/13 12:55:02;;;;;;;8.57;0.80;;;19.00;80.40;;;;;;5076521;28;20102;-79
2022/05/13 12:57:33;;;;;;;0.00;0.00;;;19.20;79.90;;;;;;5075589;28;20079;-79
2022/05/13 12:59:59;;;;;;;0.00;0.00;;;19.20;77.80;;;;;;5075521;28;20160;-79
2022/05/13 13:02:30;;;;;;;0.03;0.00;;;19.40;79.50;;;;;;5057958;28;20060;-78
2022/05/13 13:05:01;;;;;;;0.10;0.10;;;19.80;80.30;;;;;;5075818;28;20040;-79
2022/05/13 13:07:29;;;;;;;0.00;0.00;;;19.90;80.00;;;;;;5058753;28;20114;-78
2022/05/13 13:09:57;;;;;;;0.00;0.00;;;20.00;78.90;;;;;;5058800;28;20055;-79
2022/05/13 13:12:40;;;;;;;0.10;0.10;;;20.00;80.00;;;;;;5075334;28;20050;-78
2022/05/13 13:15:29;;;;;;;0.00;0.00;;;19.80;77.50;;;;;;5075539;28;20052;-78
2022/05/13 13:17:57;;;;;;;0.00;0.00;;;19.60;77.50;;;;;;5075784;28;20052;-78
2022/05/13 13:20:26;;;;;;;0.05;0.00;;;19.40;78.50;;;;;;5058735;28;20040;-79
2022/05/13 13:22:55;;;;;;;0.28;0.00;;;19.40;79.10;;;;;;5075159;28;20056;-78
2022/05/13 13:25:32;;;;;;;0.00;0.00;;;19.50;79.60;;;;;;5074934;28;20403;-79
2022/05/13 13:28:08;;;;;;;0.85;0.22;;;19.50;79.60;;;;;;5075171;28;20071;-79
2022/05/13 13:30:36;;;;;;;0.00;0.00;;;19.80;78.30;;;;;;5074921;28;20044;-79
2022/05/13 13:33:06;;;;;;;0.00;0.00;;;20.00;77.80;;;;;;5075095;28;20056;-79
2022/05/13 13:35:34;;;;;;;0.00;0.00;;;20.00;76.40;;;;;;5092875;28;20092;-79